Time;durP1;ratioP1;P1;durP2;ratioP2;P2;SDS_P1;SDS_P2;PMS_P1;PMS_P2;Temp;Humidity;BMP_temperature;BMP_pressure;BME280_temperature;BME280_humidity;BME280_pressure;Samples;Min_cycle;Max_cycle;Signal;HPM_P1;HPM_P2
2022/04/22 00:01:10;;;;;;;16.48;13.25;;;;;;;-142.91;100.00;56616.03;5005932;28;20200;-74
2022/04/22 00:03:37;;;;;;;20.10;12.68;;;;;;;-142.91;100.00;56616.03;5005316;28;20215;-75
2022/04/22 00:06:05;;;;;;;16.55;12.32;;;;;;;-142.91;100.00;56616.03;5006356;28;20207;-74
2022/04/22 00:08:32;;;;;;;14.63;12.40;;;;;;;-142.91;100.00;56616.03;5005675;28;20232;-77
2022/04/22 00:13:43;;;;;;;18.23;10.88;;;;;;;-142.91;100.00;56616.03;5008716;28;20234;-72
2022/04/22 00:16:12;;;;;;;14.98;11.65;;;;;;;-142.91;100.00;56616.03;5005337;28;20261;-74
2022/04/22 00:18:39;;;;;;;17.63;12.77;;;;;;;-142.91;100.00;56616.03;5004827;28;20200;-75
2022/04/22 00:21:07;;;;;;;14.32;12.82;;;;;;;-142.91;100.00;56616.03;5004237;28;20237;-74
2022/04/22 00:23:34;;;;;;;17.60;11.98;;;;;;;-142.91;100.00;56616.03;5005448;28;20821;-74
2022/04/22 00:26:00;;;;;;;16.23;11.30;;;;;;;-142.91;100.00;56616.03;5006060;28;20242;-74
2022/04/22 00:28:27;;;;;;;17.10;13.23;;;;;;;-142.91;100.00;56616.03;5005736;28;20263;-75
2022/04/22 00:30:54;;;;;;;17.58;13.38;;;;;;;-142.91;100.00;56616.03;5004942;28;20259;-74
2022/04/22 00:33:22;;;;;;;15.07;13.48;;;;;;;-142.91;100.00;56616.03;5005738;28;20624;-75
2022/04/22 00:35:49;;;;;;;19.90;13.10;;;;;;;-142.91;100.00;56616.03;5004704;28;20208;-73
2022/04/22 00:38:16;;;;;;;20.42;13.75;;;;;;;-142.91;100.00;56616.03;5004885;28;20346;-74
2022/04/22 00:40:43;;;;;;;18.10;12.50;;;;;;;-142.91;100.00;56616.03;5005747;28;20200;-74
2022/04/22 00:43:18;;;;;;;19.98;14.77;;;;;;;-142.91;100.00;56616.03;5005181;28;20196;-75
2022/04/22 00:45:46;;;;;;;17.90;13.60;;;;;;;-142.91;100.00;56616.03;5005506;28;20207;-75
2022/04/22 00:48:13;;;;;;;20.33;13.80;;;;;;;-142.91;100.00;56616.03;5003924;28;20231;-76
2022/04/22 00:50:41;;;;;;;18.35;13.68;;;;;;;-142.91;100.00;56616.03;5005056;28;20196;-74
2022/04/22 00:53:09;;;;;;;22.00;13.88;;;;;;;-142.91;100.00;56616.03;5005134;28;20253;-74
2022/04/22 00:55:38;;;;;;;16.67;13.25;;;;;;;-142.91;100.00;56616.03;5002965;28;20204;-74
2022/04/22 00:58:05;;;;;;;17.42;13.77;;;;;;;-142.91;100.00;56616.03;5002772;28;20215;-74
2022/04/22 01:00:32;;;;;;;15.73;13.55;;;;;;;-142.91;100.00;56616.03;5003673;28;20238;-74
2022/04/22 01:02:59;;;;;;;19.05;14.02;;;;;;;-142.91;100.00;56616.03;5005568;28;20229;-75
2022/04/22 01:10:58;;;;;;;19.95;13.60;;;;;;;-142.91;100.00;56616.03;5005308;28;20211;-74
2022/04/22 01:13:25;;;;;;;18.20;12.98;;;;;;;-142.91;100.00;56616.03;5005740;28;20196;-76
2022/04/22 01:15:52;;;;;;;22.50;14.50;;;;;;;-142.91;100.00;56616.03;5006112;28;20242;-75
2022/04/22 01:18:19;;;;;;;20.92;14.38;;;;;;;-142.91;100.00;56616.03;5004692;28;20200;-75
2022/04/22 01:20:46;;;;;;;19.35;13.82;;;;;;;-142.91;100.00;56616.03;5005172;28;20216;-75
2022/04/22 01:23:14;;;;;;;19.67;14.27;;;;;;;-142.91;100.00;56616.03;5004983;28;20208;-75
2022/04/22 01:25:41;;;;;;;22.63;15.13;;;;;;;-142.91;100.00;56616.03;5005428;28;20273;-76
2022/04/22 01:28:09;;;;;;;14.38;12.70;;;;;;;-142.91;100.00;56616.03;5005073;28;20595;-75
2022/04/22 01:30:36;;;;;;;16.83;13.23;;;;;;;-142.91;100.00;56616.03;5004286;28;20587;-74
2022/04/22 01:33:03;;;;;;;18.30;12.75;;;;;;;-142.91;100.00;56616.03;5004800;28;20200;-76
2022/04/22 01:35:30;;;;;;;18.25;12.63;;;;;;;-142.91;100.00;56616.03;5004398;28;20215;-75
2022/04/22 01:37:56;;;;;;;12.68;11.43;;;;;;;-142.91;100.00;56616.03;5004454;28;20200;-75
2022/04/22 01:40:25;;;;;;;14.48;10.88;;;;;;;-142.91;100.00;56616.03;5004581;28;20204;-76
2022/04/22 01:43:17;;;;;;;15.13;12.25;;;;;;;-142.91;100.00;56616.03;5005467;28;20801;-76
2022/04/22 01:45:44;;;;;;;14.00;11.82;;;;;;;-142.91;100.00;56616.03;5008491;28;20204;-74
2022/04/22 01:48:11;;;;;;;15.38;12.43;;;;;;;-142.91;100.00;56616.03;5006649;28;20362;-74
2022/04/22 01:50:56;;;;;;;21.77;12.02;;;;;;;-142.91;100.00;56616.03;5007365;28;20756;-74
2022/04/22 01:53:23;;;;;;;14.15;10.88;;;;;;;-142.91;100.00;56616.03;5007971;28;20200;-74
2022/04/22 01:55:51;;;;;;;19.67;11.77;;;;;;;-142.91;100.00;56616.03;5006879;28;20670;-74
2022/04/22 01:58:18;;;;;;;15.10;11.43;;;;;;;-142.91;100.00;56616.03;5006160;28;20222;-76
2022/04/22 02:01:18;;;;;;;13.70;11.73;;;;;;;-142.91;100.00;56616.03;5006979;28;20576;-75
2022/04/22 02:03:45;;;;;;;15.73;12.65;;;;;;;-142.91;100.00;56616.03;5007440;28;20204;-75
2022/04/22 02:06:28;;;;;;;18.40;12.73;;;;;;;-142.91;100.00;56616.03;5008161;28;20196;-74
2022/04/22 02:08:58;;;;;;;15.77;13.45;;;;;;;-142.91;100.00;56616.03;5007309;28;20231;-74
2022/04/22 02:11:29;;;;;;;16.65;13.38;;;;;;;-142.91;100.00;56616.03;5007358;28;20275;-75
2022/04/22 02:13:56;;;;;;;16.27;12.95;;;;;;;-142.91;100.00;56616.03;5004304;28;20207;-75
2022/04/22 02:16:22;;;;;;;16.85;13.93;;;;;;;-142.91;100.00;56616.03;5004359;28;20281;-75
2022/04/22 02:18:49;;;;;;;16.60;13.93;;;;;;;-142.91;100.00;56616.03;5004079;28;20215;-75
2022/04/22 02:21:16;;;;;;;19.30;14.75;;;;;;;-142.91;100.00;56616.03;5004901;28;20688;-75
2022/04/22 02:23:43;;;;;;;15.63;13.15;;;;;;;-142.91;100.00;56616.03;5005501;28;20692;-75
2022/04/22 02:26:10;;;;;;;19.30;14.70;;;;;;;-142.91;100.00;56616.03;5003148;28;20204;-74
2022/04/22 02:28:38;;;;;;;22.02;15.85;;;;;;;-142.91;100.00;56616.03;5003958;28;20336;-73
2022/04/22 02:31:06;;;;;;;15.82;13.57;;;;;;;-142.91;100.00;56616.03;5005187;28;20214;-73
2022/04/22 02:33:34;;;;;;;19.73;15.10;;;;;;;-142.91;100.00;56616.03;5004936;28;20274;-73
2022/04/22 02:36:01;;;;;;;19.83;16.23;;;;;;;-142.91;100.00;56616.03;5005036;28;20208;-74
2022/04/22 02:38:28;;;;;;;18.85;15.32;;;;;;;-142.91;100.00;56616.03;5005385;28;20646;-73
2022/04/22 02:46:28;;;;;;;21.60;15.80;;;;;;;-142.91;100.00;56616.03;5005239;28;20599;-75
2022/04/22 02:48:57;;;;;;;25.95;16.58;;;;;;;-142.91;100.00;56616.03;5005488;28;20319;-73
2022/04/22 02:51:24;;;;;;;24.77;16.75;;;;;;;-142.91;100.00;56616.03;5004779;28;20207;-73
2022/04/22 02:53:51;;;;;;;18.58;14.65;;;;;;;-142.91;100.00;56616.03;5005390;28;20215;-74
2022/04/22 02:56:19;;;;;;;28.52;16.55;;;;;;;-142.91;100.00;56616.03;5004805;28;20311;-73
2022/04/22 02:58:48;;;;;;;19.25;14.98;;;;;;;-142.91;100.00;56616.03;5006040;28;20269;-73
2022/04/22 03:01:16;;;;;;;18.38;14.38;;;;;;;-142.91;100.00;56616.03;5005306;28;20687;-75
2022/04/22 03:03:43;;;;;;;17.27;13.88;;;;;;;-142.91;100.00;56616.03;5004492;28;20278;-73
2022/04/22 03:06:09;;;;;;;19.70;14.52;;;;;;;-142.91;100.00;56616.03;5004337;28;20253;-74
2022/04/22 03:08:36;;;;;;;19.00;13.82;;;;;;;-142.91;100.00;56616.03;5004229;28;20289;-74
2022/04/22 03:11:03;;;;;;;17.63;13.48;;;;;;;-142.91;100.00;56616.03;5006872;28;20207;-74
2022/04/22 03:13:30;;;;;;;18.17;13.77;;;;;;;-142.91;100.00;56616.03;5008479;28;20778;-76
2022/04/22 03:15:59;;;;;;;16.63;12.90;;;;;;;-142.91;100.00;56616.03;5009017;28;20793;-74
2022/04/22 03:18:27;;;;;;;19.63;12.60;;;;;;;-142.91;100.00;56616.03;5007481;28;20321;-74
2022/04/22 03:20:54;;;;;;;17.63;13.75;;;;;;;-142.91;100.00;56616.03;5008623;28;20219;-75
2022/04/22 03:23:21;;;;;;;17.63;13.73;;;;;;;-142.91;100.00;56616.03;5008603;28;21625;-75
2022/04/22 03:25:48;;;;;;;17.13;13.07;;;;;;;-142.91;100.00;56616.03;5007931;28;20266;-75
2022/04/22 03:28:15;;;;;;;18.58;13.98;;;;;;;-142.91;100.00;56616.03;5008241;28;20289;-74
2022/04/22 03:30:42;;;;;;;17.55;14.07;;;;;;;-142.91;100.00;56616.03;5008852;28;20214;-74
2022/04/22 03:33:10;;;;;;;21.95;15.15;;;;;;;-142.91;100.00;56616.03;5007852;28;20257;-74
2022/04/22 03:35:37;;;;;;;25.75;15.90;;;;;;;-142.91;100.00;56616.03;5008109;28;20199;-75
2022/04/22 03:38:04;;;;;;;20.40;15.93;;;;;;;-142.91;100.00;56616.03;5008023;28;20208;-75
2022/04/22 03:40:31;;;;;;;25.23;17.13;;;;;;;-142.91;100.00;56616.03;5009350;28;20207;-75
2022/04/22 03:42:57;;;;;;;20.08;15.98;;;;;;;-142.91;100.00;56616.03;5009742;28;20211;-75
2022/04/22 03:45:24;;;;;;;19.77;16.20;;;;;;;-142.91;100.00;56616.03;5010657;28;20262;-74
2022/04/22 03:47:51;;;;;;;20.77;16.13;;;;;;;-142.91;100.00;56616.03;5009692;28;20242;-74
2022/04/22 03:50:20;;;;;;;21.55;16.55;;;;;;;-142.91;100.00;56616.03;5009540;28;20208;-74
2022/04/22 03:52:46;;;;;;;25.55;17.80;;;;;;;-142.91;100.00;56616.03;5009092;28;20298;-74
2022/04/22 03:55:14;;;;;;;18.83;15.90;;;;;;;-142.91;100.00;56616.03;5009661;28;20564;-74
2022/04/22 04:00:25;;;;;;;20.27;16.02;;;;;;;-142.91;100.00;56616.03;5009658;28;20690;-75
2022/04/22 04:02:51;;;;;;;21.27;16.55;;;;;;;-142.91;100.00;56616.03;5009343;28;20204;-75
2022/04/22 04:05:20;;;;;;;19.92;15.93;;;;;;;-142.91;100.00;56616.03;5009818;28;20675;-74
2022/04/22 04:07:47;;;;;;;18.65;15.95;;;;;;;-142.91;100.00;56616.03;5009390;28;20211;-74
2022/04/22 04:16:01;;;;;;;25.27;14.45;;;;;;;-142.91;100.00;56616.03;5009097;28;20787;-75
2022/04/22 04:18:30;;;;;;;12.75;11.32;;;;;;;-142.91;100.00;56616.03;5023756;28;21200;-74
2022/04/22 04:23:44;;;;;;;15.10;13.40;;;;;;;-142.91;100.00;56616.03;5007398;28;20353;-74
2022/04/22 04:26:11;;;;;;;12.68;11.48;;;;;;;-142.91;100.00;56616.03;5006134;28;20258;-74
2022/04/22 04:28:39;;;;;;;18.95;12.18;;;;;;;-142.91;100.00;56616.03;5007092;28;20246;-76
2022/04/22 04:31:08;;;;;;;11.52;9.95;;;;;;;-142.91;100.00;56616.03;5008982;28;20205;-76
2022/04/22 04:33:37;;;;;;;12.55;11.32;;;;;;;-142.91;100.00;56616.03;5006027;28;20246;-75
2022/04/22 04:36:09;;;;;;;12.43;11.13;;;;;;;-142.91;100.00;56616.03;5008027;28;20209;-75
2022/04/22 04:38:37;;;;;;;13.55;10.80;;;;;;;-142.91;100.00;56616.03;5006307;28;20216;-74
2022/04/22 04:41:05;;;;;;;17.60;11.38;;;;;;;-142.91;100.00;56616.03;5006596;28;20200;-75
2022/04/22 04:43:32;;;;;;;12.25;11.13;;;;;;;-142.91;100.00;56616.03;5007368;28;20571;-75
2022/04/22 04:45:59;;;;;;;13.90;10.82;;;;;;;-142.91;100.00;56616.03;5007607;28;20361;-74
2022/04/22 04:48:26;;;;;;;11.75;10.75;;;;;;;-142.91;100.00;56616.03;5006318;28;20297;-72
2022/04/22 04:50:55;;;;;;;113.15;63.83;;;;;;;-142.91;100.00;56616.03;5006558;28;20642;-72
2022/04/22 04:53:24;;;;;;;21.33;14.98;;;;;;;-142.91;100.00;56616.03;5006786;28;20192;-74
2022/04/22 04:55:52;;;;;;;13.10;11.63;;;;;;;-142.91;100.00;56616.03;5007069;28;20206;-72
2022/04/22 04:58:19;;;;;;;11.93;10.65;;;;;;;-142.91;100.00;56616.03;5007550;28;20222;-73
2022/04/22 05:00:46;;;;;;;11.73;10.63;;;;;;;-142.91;100.00;56616.03;5006550;28;21314;-74
2022/04/22 05:03:13;;;;;;;13.55;12.13;;;;;;;-142.91;100.00;56616.03;5006961;28;20671;-75
2022/04/22 05:05:40;;;;;;;16.77;12.07;;;;;;;-142.91;100.00;56616.03;5006395;28;20199;-74
2022/04/22 05:08:08;;;;;;;14.82;11.68;;;;;;;-142.91;100.00;56616.03;5006933;28;20231;-75
2022/04/22 05:10:37;;;;;;;12.35;11.02;;;;;;;-142.91;100.00;56616.03;5006872;28;20207;-74
2022/04/22 05:13:05;;;;;;;13.68;11.57;;;;;;;-142.91;100.00;56616.03;5007921;28;20667;-75
2022/04/22 05:15:33;;;;;;;14.07;12.30;;;;;;;-142.91;100.00;56616.03;5006136;28;20235;-74
2022/04/22 05:18:02;;;;;;;14.65;11.70;;;;;;;-142.91;100.00;56616.03;5007753;28;20203;-74
2022/04/22 05:20:29;;;;;;;14.23;12.13;;;;;;;-142.91;100.00;56616.03;5005494;28;20227;-73
2022/04/22 05:22:58;;;;;;;15.30;12.00;;;;;;;-142.91;100.00;56616.03;5006234;28;20200;-74
2022/04/22 05:25:25;;;;;;;13.55;12.15;;;;;;;-142.91;100.00;56616.03;5006703;28;20203;-75
2022/04/22 05:27:54;;;;;;;17.77;12.43;;;;;;;-142.91;100.00;56616.03;5006732;28;22325;-74
2022/04/22 05:33:06;;;;;;;14.18;12.02;;;;;;;-142.91;100.00;56616.03;5006184;28;20226;-73
2022/04/22 05:35:33;;;;;;;14.95;11.02;;;;;;;-142.91;100.00;56616.03;5006897;28;20387;-73
2022/04/22 05:38:01;;;;;;;12.70;11.40;;;;;;;-142.91;100.00;56616.03;5007022;28;20207;-74
2022/04/22 05:40:30;;;;;;;18.33;11.80;;;;;;;-142.91;100.00;56616.03;5004646;28;20659;-72
2022/04/22 05:42:59;;;;;;;16.75;11.45;;;;;;;-142.91;100.00;56616.03;5006786;28;20203;-73
2022/04/22 05:45:27;;;;;;;13.02;10.27;;;;;;;-142.91;100.00;56616.03;5005809;28;20200;-72
2022/04/22 05:47:56;;;;;;;14.63;11.10;;;;;;;-142.91;100.00;56616.03;5005861;28;20208;-74
2022/04/22 05:50:23;;;;;;;14.13;9.13;;;;;;;-142.91;100.00;56616.03;5005333;28;20227;-73
2022/04/22 05:52:52;;;;;;;12.00;10.07;;;;;;;-142.91;100.00;56616.03;5006733;28;20203;-73
2022/04/22 05:55:20;;;;;;;12.80;10.52;;;;;;;-142.91;100.00;56616.03;5006672;28;20584;-74
2022/04/22 05:57:49;;;;;;;12.98;10.18;;;;;;;-142.91;100.00;56616.03;5006396;28;20204;-72
2022/04/22 06:00:19;;;;;;;11.95;10.35;;;;;;;-142.91;100.00;56616.03;5005357;28;20266;-73
2022/04/22 06:02:46;;;;;;;13.15;10.70;;;;;;;-142.91;100.00;56616.03;5005840;28;21435;-73
2022/04/22 06:05:15;;;;;;;11.82;9.98;;;;;;;-142.91;100.00;56616.03;5006123;28;20671;-73
2022/04/22 06:07:43;;;;;;;12.90;10.68;;;;;;;-142.91;100.00;56616.03;5006449;28;20207;-72
2022/04/22 06:12:57;;;;;;;16.40;11.13;;;;;;;-142.91;100.00;56616.03;5005822;28;20215;-72
2022/04/22 06:15:25;;;;;;;14.40;9.77;;;;;;;-142.91;100.00;56616.03;5005468;28;20235;-73
2022/04/22 06:17:53;;;;;;;12.45;10.73;;;;;;;-142.91;100.00;56616.03;5006104;28;20294;-75
2022/04/22 06:20:20;;;;;;;13.90;10.50;;;;;;;-142.91;100.00;56616.03;5005422;28;20224;-74
2022/04/22 06:22:46;;;;;;;12.13;10.70;;;;;;;-142.91;100.00;56616.03;5005206;28;20203;-75
2022/04/22 06:25:14;;;;;;;13.38;10.95;;;;;;;-142.91;100.00;56616.03;5005106;28;20207;-75
2022/04/22 06:27:43;;;;;;;12.63;11.32;;;;;;;-142.91;100.00;56616.03;5005616;28;20233;-73
2022/04/22 06:30:12;;;;;;;11.93;10.63;;;;;;;-142.91;100.00;56616.03;5005523;28;20371;-73
2022/04/22 06:32:43;;;;;;;11.65;10.48;;;;;;;-142.91;100.00;56616.03;5006095;28;20270;-73
2022/04/22 06:35:12;;;;;;;12.02;10.07;;;;;;;-142.91;100.00;56616.03;5004645;28;20208;-75
2022/04/22 06:37:41;;;;;;;10.43;9.30;;;;;;;-142.91;100.00;56616.03;5006177;28;20631;-73
2022/04/22 06:45:49;;;;;;;10.68;9.05;;;;;;;-142.91;100.00;56616.03;5006601;28;20254;-73
2022/04/22 06:48:20;;;;;;;9.60;8.60;;;;;;;-142.91;100.00;56616.03;5009828;28;20333;-73
2022/04/22 06:50:48;;;;;;;8.80;7.93;;;;;;;-142.91;100.00;56616.03;5008784;28;20203;-73
2022/04/22 06:53:16;;;;;;;8.52;7.80;;;;;;;-142.91;100.00;56616.03;5009404;28;20207;-75
2022/04/22 06:55:44;;;;;;;10.05;9.05;;;;;;;-142.91;100.00;56616.03;5007566;28;20779;-75
2022/04/22 06:58:12;;;;;;;11.70;8.10;;;;;;;-142.91;100.00;56616.03;5008772;28;20208;-75
2022/04/22 07:00:40;;;;;;;10.38;9.38;;;;;;;-142.91;100.00;56616.03;5008675;28;21161;-74
2022/04/22 07:03:08;;;;;;;9.23;8.18;;;;;;;-142.91;100.00;56616.03;5009914;28;20216;-74
2022/04/22 07:05:38;;;;;;;8.80;7.95;;;;;;;-142.91;100.00;56616.03;5009403;28;20207;-74
2022/04/22 07:08:06;;;;;;;8.27;7.60;;;;;;;-142.91;100.00;56616.03;5010210;28;20212;-75
2022/04/22 07:10:34;;;;;;;8.98;8.05;;;;;;;-142.91;100.00;56616.03;5008933;28;20683;-75
2022/04/22 07:13:01;;;;;;;7.65;6.90;;;;;;;-142.91;100.00;56616.03;5008412;28;20196;-73
2022/04/22 07:15:29;;;;;;;7.75;7.00;;;;;;;-142.91;100.00;56616.03;5008083;28;20479;-74
2022/04/22 07:17:58;;;;;;;7.18;6.57;;;;;;;-142.91;100.00;56616.03;5009269;28;20258;-72
2022/04/22 07:20:25;;;;;;;7.15;6.63;;;;;;;-142.91;100.00;56616.03;5009523;28;20223;-74
2022/04/22 07:22:54;;;;;;;6.97;6.28;;;;;;;-142.91;100.00;56616.03;5009334;28;20195;-72
2022/04/22 07:25:22;;;;;;;6.32;5.72;;;;;;;-142.91;100.00;56616.03;5007991;28;20207;-73
2022/04/22 07:27:49;;;;;;;6.78;6.03;;;;;;;-142.91;100.00;56616.03;5009030;28;20230;-72
2022/04/22 07:30:18;;;;;;;7.47;6.75;;;;;;;-142.91;100.00;56616.03;5007802;28;20228;-74
2022/04/22 07:32:48;;;;;;;6.40;6.00;;;;;;;-142.91;100.00;56616.03;5008691;28;20214;-74
2022/04/22 07:35:16;;;;;;;14.77;6.70;;;;;;;-142.91;100.00;56616.03;5008357;28;20280;-72
2022/04/22 07:37:44;;;;;;;5.93;5.32;;;;;;;-142.91;100.00;56616.03;5008825;28;20204;-73
2022/04/22 07:40:14;;;;;;;5.75;5.32;;;;;;;-142.91;100.00;56616.03;5007429;28;20671;-75
2022/04/22 07:46:46;;;;;;;6.10;5.63;;;;;;;-142.91;100.00;56616.03;5009334;28;20200;-74
2022/04/22 07:48:18;;;;;;;7.22;6.45;;;;;;;-142.91;100.00;56616.03;5008558;28;20303;-75
2022/04/22 07:50:46;;;;;;;6.68;6.07;;;;;;;-142.91;100.00;56616.03;5007909;28;20227;-74
2022/04/22 07:53:14;;;;;;;6.78;6.03;;;;;;;-142.91;100.00;56616.03;5007995;28;20317;-75
2022/04/22 07:55:42;;;;;;;5.95;5.50;;;;;;;-142.91;100.00;56616.03;5006056;28;20597;-74
2022/04/22 07:58:12;;;;;;;6.38;5.88;;;;;;;-142.91;100.00;56616.03;5008955;28;20211;-73
2022/04/22 08:00:40;;;;;;;6.70;6.20;;;;;;;-142.91;100.00;56616.03;5008434;28;20235;-74
2022/04/22 08:03:07;;;;;;;8.60;6.00;;;;;;;-142.91;100.00;56616.03;5008096;28;20303;-74
2022/04/22 08:05:34;;;;;;;6.82;6.22;;;;;;;-142.91;100.00;56616.03;5008126;28;20200;-74
2022/04/22 08:08:02;;;;;;;6.22;5.38;;;;;;;-142.91;100.00;56616.03;5007432;28;20290;-73
2022/04/22 08:10:28;;;;;;;11.80;5.93;;;;;;;-142.91;100.00;56616.03;5008298;28;20290;-75
2022/04/22 08:12:57;;;;;;;10.63;5.53;;;;;;;-142.91;100.00;56616.03;5009413;28;20207;-72
2022/04/22 08:15:24;;;;;;;5.80;5.40;;;;;;;-142.91;100.00;56616.03;5006700;28;20238;-73
2022/04/22 08:17:50;;;;;;;5.93;5.32;;;;;;;-142.91;100.00;56616.03;5008404;28;20258;-73
2022/04/22 08:20:17;;;;;;;7.60;5.25;;;;;;;-142.91;100.00;56616.03;5006947;28;20278;-74
2022/04/22 08:22:45;;;;;;;5.70;5.20;;;;;;;-142.91;100.00;56616.03;5008599;28;20220;-75
2022/04/22 08:25:12;;;;;;;5.43;5.03;;;;;;;-142.91;100.00;56616.03;5006825;28;20733;-73
2022/04/22 08:27:39;;;;;;;6.57;6.07;;;;;;;-142.91;100.00;56616.03;5008015;28;20582;-76
2022/04/22 08:30:10;;;;;;;7.28;5.60;;;;;;;-142.91;100.00;56616.03;5007335;28;20257;-72
2022/04/22 08:32:36;;;;;;;5.20;4.82;;;;;;;-142.91;100.00;56616.03;5007583;28;20199;-72
2022/04/22 08:35:03;;;;;;;5.50;5.18;;;;;;;-142.91;100.00;56616.03;5007677;28;20269;-72
2022/04/22 08:37:30;;;;;;;5.55;5.05;;;;;;;-142.91;100.00;56616.03;5008212;28;20265;-73
2022/04/22 08:39:58;;;;;;;6.20;5.60;;;;;;;-142.91;100.00;56616.03;5005014;28;20726;-74
2022/04/22 08:42:26;;;;;;;5.70;5.30;;;;;;;-142.91;100.00;56616.03;5007162;28;20882;-73
2022/04/22 08:44:54;;;;;;;5.35;4.95;;;;;;;-142.91;100.00;56616.03;5008218;28;20208;-73
2022/04/22 08:50:13;;;;;;;7.07;4.85;;;;;;;-142.91;100.00;56616.03;5007530;28;20346;-73
2022/04/22 08:52:43;;;;;;;6.72;4.85;;;;;;;-142.91;100.00;56616.03;5007562;28;20219;-74
2022/04/22 08:55:12;;;;;;;4.93;4.63;;;;;;;-142.91;100.00;56616.03;5006280;28;20208;-74
2022/04/22 08:57:41;;;;;;;10.18;5.10;;;;;;;-142.91;100.00;56616.03;5007285;28;20243;-75
2022/04/22 09:00:09;;;;;;;5.57;5.13;;;;;;;-142.91;100.00;56616.03;5006999;28;20204;-72
2022/04/22 09:02:38;;;;;;;5.53;4.65;;;;;;;-142.91;100.00;56616.03;5006286;28;20254;-74
2022/04/22 09:05:08;;;;;;;5.53;5.13;;;;;;;-142.91;100.00;56616.03;5005890;28;22324;-73
2022/04/22 09:07:35;;;;;;;6.93;5.47;;;;;;;-142.91;100.00;56616.03;5003925;28;20304;-73
2022/04/22 09:10:02;;;;;;;5.47;4.72;;;;;;;-142.91;100.00;56616.03;5005767;28;20858;-75
2022/04/22 09:12:30;;;;;;;5.63;4.65;;;;;;;-142.91;100.00;56616.03;5006823;28;20207;-73
2022/04/22 09:14:57;;;;;;;5.53;4.97;;;;;;;-142.91;100.00;56616.03;5004966;28;20246;-72
2022/04/22 09:17:25;;;;;;;5.00;4.60;;;;;;;-142.91;100.00;56616.03;5005424;28;20265;-74
2022/04/22 09:19:55;;;;;;;5.68;4.60;;;;;;;-142.91;100.00;56616.03;5004499;28;20221;-74
2022/04/22 09:22:24;;;;;;;8.32;5.18;;;;;;;-142.91;100.00;56616.03;5005783;28;20271;-76
2022/04/22 09:24:52;;;;;;;4.97;4.57;;;;;;;-142.91;100.00;56616.03;5006027;28;20213;-73
2022/04/22 09:27:20;;;;;;;4.88;4.30;;;;;;;-142.91;100.00;56616.03;5004574;28;20661;-72
2022/04/22 09:29:54;;;;;;;5.93;5.30;;;;;;;-142.91;100.00;56616.03;5005503;28;20231;-74
2022/04/22 09:32:26;;;;;;;5.22;4.28;;;;;;;-142.91;100.00;56616.03;5003286;28;20252;-73
2022/04/22 09:34:57;;;;;;;8.50;4.75;;;;;;;-142.91;100.00;56616.03;5004560;28;20305;-73
2022/04/22 09:42:55;;;;;;;5.35;4.38;;;;;;;-142.91;100.00;56616.03;5004919;28;20262;-74
2022/04/22 09:45:22;;;;;;;6.72;4.57;;;;;;;-142.91;100.00;56616.03;5004142;28;20196;-73
2022/04/22 09:48:00;;;;;;;4.30;3.97;;;;;;;-142.91;100.00;56616.03;5004789;28;20451;-72
2022/04/22 09:50:46;;;;;;;4.18;3.88;;;;;;;-142.91;100.00;56616.03;5005204;28;20235;-75
2022/04/22 09:53:16;;;;;;;6.35;4.95;;;;;;;-142.91;100.00;56616.03;5002377;28;20204;-73
2022/04/22 09:55:55;;;;;;;8.35;4.07;;;;;;;-142.91;100.00;56616.03;5006217;28;20266;-72
2022/04/22 09:58:24;;;;;;;6.80;4.75;;;;;;;-142.91;100.00;56616.03;5005923;28;20265;-72
2022/04/22 10:00:56;;;;;;;5.18;4.78;;;;;;;-142.91;100.00;56616.03;5006294;28;20205;-74
2022/04/22 10:03:24;;;;;;;4.65;4.35;;;;;;;-142.91;100.00;56616.03;5005508;28;20191;-74
2022/04/22 10:05:54;;;;;;;5.25;4.38;;;;;;;-142.91;100.00;56616.03;5004140;28;20694;-76
2022/04/22 10:08:22;;;;;;;12.63;4.53;;;;;;;-142.91;100.00;56616.03;5003888;28;20215;-74
2022/04/22 10:10:51;;;;;;;11.88;5.57;;;;;;;-142.91;100.00;56616.03;5004723;28;20263;-74
2022/04/22 10:13:21;;;;;;;5.78;5.00;;;;;;;-142.91;100.00;56616.03;5006250;28;20597;-73
2022/04/22 10:15:49;;;;;;;6.20;4.88;;;;;;;-142.91;100.00;56616.03;5004505;28;20232;-73
2022/04/22 10:18:17;;;;;;;6.03;4.30;;;;;;;-142.91;100.00;56616.03;5004717;28;20655;-75
2022/04/22 10:20:46;;;;;;;11.57;4.55;;;;;;;-142.91;100.00;56616.03;5004013;28;20223;-73
2022/04/22 10:23:14;;;;;;;6.95;4.85;;;;;;;-142.91;100.00;56616.03;5007488;28;20207;-72
2022/04/22 10:25:42;;;;;;;5.53;4.60;;;;;;;-142.91;100.00;56616.03;5006945;28;20200;-72
2022/04/22 10:28:11;;;;;;;6.72;4.85;;;;;;;-142.91;100.00;56616.03;5006354;28;20723;-74
2022/04/22 10:30:40;;;;;;;3.58;3.38;;;;;;;-142.91;100.00;56616.03;5022287;28;20698;-73
2022/04/22 10:33:09;;;;;;;4.90;4.53;;;;;;;-142.91;100.00;56616.03;5025761;28;20200;-73
2022/04/22 10:35:40;;;;;;;7.15;6.45;;;;;;;-142.91;100.00;56616.03;5022065;28;20247;-73
2022/04/22 10:38:11;;;;;;;35.40;23.23;;;;;;;-142.91;100.00;56616.03;5006667;28;20684;-73
2022/04/22 10:40:48;;;;;;;5.32;4.38;;;;;;;-142.91;100.00;56616.03;5005225;28;20695;-73
2022/04/22 10:43:15;;;;;;;5.75;3.85;;;;;;;-142.91;100.00;56616.03;5005445;28;20191;-73
2022/04/22 10:48:27;;;;;;;5.43;4.07;;;;;;;-142.91;100.00;56616.03;5007782;28;20205;-74
2022/04/22 10:50:58;;;;;;;6.90;4.15;;;;;;;-142.91;100.00;56616.03;5014292;28;20229;-74
2022/04/22 10:53:27;;;;;;;4.47;3.53;;;;;;;-142.91;100.00;56616.03;5027604;28;20518;-72
2022/04/22 10:56:35;;;;;;;8.30;4.65;;;;;;;-142.91;100.00;56616.03;5021355;28;20205;-75
2022/04/22 10:59:24;;;;;;;4.90;3.70;;;;;;;-142.91;100.00;56616.03;5010048;28;20196;-73
2022/04/22 11:01:52;;;;;;;7.65;3.92;;;;;;;-142.91;100.00;56616.03;5010247;28;20703;-73
2022/04/22 11:04:19;;;;;;;4.60;3.97;;;;;;;-142.91;100.00;56616.03;5009825;28;20247;-73
2022/04/22 11:06:46;;;;;;;5.00;4.35;;;;;;;-142.91;100.00;56616.03;5010199;28;20680;-76
2022/04/22 11:09:25;;;;;;;10.65;4.28;;;;;;;-142.91;100.00;56616.03;5010304;28;20296;-74
2022/04/22 11:11:53;;;;;;;5.20;4.63;;;;;;;-142.91;100.00;56616.03;5010579;28;20570;-74
2022/04/22 11:14:23;;;;;;;3.92;3.58;;;;;;;-142.91;100.00;56616.03;5009782;28;20340;-73
2022/04/22 11:16:51;;;;;;;5.63;4.68;;;;;;;-142.91;100.00;56616.03;5009910;28;20201;-73
2022/04/22 11:19:26;;;;;;;9.18;3.83;;;;;;;-142.91;100.00;56616.03;5009712;28;20721;-73
2022/04/22 11:21:55;;;;;;;4.53;4.22;;;;;;;-142.91;100.00;56616.03;5024539;28;20659;-75
2022/04/22 11:24:24;;;;;;;6.25;4.35;;;;;;;-142.91;100.00;56616.03;5029590;28;20192;-74
2022/04/22 11:26:54;;;;;;;8.02;3.97;;;;;;;-142.91;100.00;56616.03;5028464;28;20200;-73
2022/04/22 11:29:22;;;;;;;4.88;3.75;;;;;;;-142.91;100.00;56616.03;5029306;28;20200;-73
2022/04/22 11:31:58;;;;;;;4.40;4.00;;;;;;;-142.91;100.00;56616.03;5016068;28;20228;-75
2022/04/22 11:34:48;;;;;;;5.45;3.53;;;;;;;-142.91;100.00;56616.03;5013501;28;20196;-74
2022/04/22 11:37:19;;;;;;;4.00;3.63;;;;;;;-142.91;100.00;56616.03;5030843;28;20204;-76
2022/04/22 11:39:48;;;;;;;4.40;4.07;;;;;;;-142.91;100.00;56616.03;5032612;28;20223;-73
2022/04/22 11:42:17;;;;;;;10.07;4.32;;;;;;;-142.91;100.00;56616.03;5014841;28;20212;-74
2022/04/22 11:44:44;;;;;;;5.25;4.57;;;;;;;-142.91;100.00;56616.03;5013043;28;20189;-74
2022/04/22 11:47:12;;;;;;;5.47;4.57;;;;;;;-142.91;100.00;56616.03;5030175;28;20277;-75
2022/04/22 11:49:39;;;;;;;6.88;4.20;;;;;;;-142.91;100.00;56616.03;5032914;28;20222;-74
2022/04/22 11:52:07;;;;;;;7.78;4.45;;;;;;;-142.91;100.00;56616.03;5015462;28;20605;-74
2022/04/22 11:54:35;;;;;;;5.53;4.07;;;;;;;-142.91;100.00;56616.03;5013017;28;20295;-75
2022/04/22 11:57:05;;;;;;;6.93;3.88;;;;;;;-142.91;100.00;56616.03;5028786;28;20286;-75